Time;durP1;ratioP1;P1;durP2;ratioP2;P2;SDS_P1;SDS_P2;PMS_P1;PMS_P2;Temp;Humidity;BMP_temperature;BMP_pressure;BME280_temperature;BME280_humidity;BME280_pressure;Samples;Min_cycle;Max_cycle;Signal;HPM_P1;HPM_P2
2023/10/07 00:00:17;;;;;;;19.40;4.32;;;;;;;-146.27;80.14;81592.78;5025478;28;20025;-67
2023/10/07 00:02:43;;;;;;;20.25;3.60;;;;;;;-146.27;79.95;81516.47;5020517;28;20037;-69
2023/10/07 00:05:14;;;;;;;13.77;3.95;;;;;;;-146.27;79.20;81520.50;5028582;28;20036;-67
2023/10/07 00:07:43;;;;;;;18.65;3.30;;;;;;;-146.27;79.84;81590.78;5027134;28;20034;-68
2023/10/07 00:10:14;;;;;;;13.02;3.17;;;;;;;-146.27;79.19;81536.56;5025167;28;20497;-67
2023/10/07 00:12:40;;;;;;;25.08;3.60;;;;;;;-146.27;79.31;81552.63;5030258;28;20029;-67
2023/10/07 00:15:11;;;;;;;10.70;2.88;;;;;;;-146.27;79.01;81548.59;5028594;28;20064;-69
2023/10/07 00:17:42;;;;;;;10.00;3.28;;;;;;;-146.27;78.76;81580.75;5023818;28;20013;-68
2023/10/07 00:20:12;;;;;;;16.50;3.25;;;;;;;-146.27;78.23;81512.47;5031506;28;20076;-66
2023/10/07 00:22:42;;;;;;;13.00;3.33;;;;;;;-146.27;78.56;81538.56;5021765;28;20092;-68
2023/10/07 00:25:07;;;;;;;13.18;3.15;;;;;;;-146.27;78.05;81572.72;5028171;28;20031;-67
2023/10/07 00:27:38;;;;;;;8.70;2.42;;;;;;;-146.27;77.40;81460.25;5024988;28;20034;-67
2023/10/07 00:30:13;;;;;;;12.98;2.85;;;;;;;-146.27;77.37;81474.31;5029531;28;20501;-67
2023/10/07 00:32:39;;;;;;;9.77;2.60;;;;;;;-146.27;77.13;81428.09;5021790;28;20021;-67
2023/10/07 00:35:06;;;;;;;11.70;2.72;;;;;;;-146.27;77.63;81480.31;5030755;28;20036;-67
2023/10/07 00:37:35;;;;;;;10.70;3.53;;;;;;;-146.27;76.67;81468.28;5030932;28;20039;-68
2023/10/07 00:40:14;;;;;;;12.52;3.17;;;;;;;-146.27;77.27;81544.59;5031588;28;20029;-68
2023/10/07 00:42:44;;;;;;;13.40;3.13;;;;;;;-146.27;77.18;81520.50;5021239;28;20064;-68
2023/10/07 00:45:15;;;;;;;7.68;3.00;;;;;;;-146.27;76.36;81492.38;5013983;28;20520;-67
2023/10/07 00:47:46;;;;;;;9.95;3.13;;;;;;;-146.27;75.98;81414.06;5017259;28;20029;-67
2023/10/07 00:50:12;;;;;;;14.38;2.75;;;;;;;-146.27;75.70;81383.94;5027811;28;20033;-67
2023/10/07 00:55:31;;;;;;;8.50;2.50;;;;;;;-146.27;76.09;81412.03;5018056;28;20057;-68
2023/10/07 00:58:41;;;;;;;10.65;2.70;;;;;;;-146.27;75.64;81402.00;5023472;28;20097;-69
2023/10/07 01:00:48;;;;;;;7.45;2.45;;;;;;;-146.27;75.89;81391.97;5028769;28;20537;-68
2023/10/07 01:03:23;;;;;;;11.18;2.60;;;;;;;-146.27;76.05;81400.00;5023646;28;20075;-69
2023/10/07 01:08:35;;;;;;;15.05;3.42;;;;;;;-146.27;76.34;81424.09;5021544;28;20489;-69
2023/10/07 01:13:35;;;;;;;15.25;3.15;;;;;;;-146.27;76.63;81412.03;5018264;28;20505;-67
2023/10/07 01:16:14;;;;;;;16.88;3.63;;;;;;;-146.27;76.58;81397.97;5022459;28;20053;-70
2023/10/07 01:18:39;;;;;;;10.35;2.85;;;;;;;-146.27;76.12;81357.81;5023988;28;20025;-68
2023/10/07 01:21:12;;;;;;;22.33;3.45;;;;;;;-146.27;76.55;81383.94;5017837;28;20468;-68
2023/10/07 01:23:44;;;;;;;13.05;2.88;;;;;;;-146.27;77.12;81470.28;5030209;28;20040;-68
2023/10/07 01:26:20;;;;;;;11.23;3.03;;;;;;;-146.27;76.97;81420.06;5027281;28;20030;-68
2023/10/07 01:28:46;;;;;;;17.80;3.38;;;;;;;-146.27;77.94;81474.31;5022236;28;20100;-68
2023/10/07 01:31:18;;;;;;;14.70;3.63;;;;;;;-146.27;77.57;81462.25;5018976;28;20053;-68
2023/10/07 01:33:47;;;;;;;13.83;2.93;;;;;;;-146.27;79.01;81528.53;5026355;28;20104;-68
2023/10/07 01:36:19;;;;;;;12.18;3.17;;;;;;;-146.27;77.78;81420.06;5015995;28;20116;-68
2023/10/07 01:38:48;;;;;;;12.48;3.00;;;;;;;-146.27;78.62;81454.22;5026563;28;20073;-68
2023/10/07 01:41:18;;;;;;;14.82;3.50;;;;;;;-146.27;78.80;81452.22;5027750;28;20048;-68
2023/10/07 01:44:00;;;;;;;17.60;3.42;;;;;;;-146.27;78.38;81428.09;5019146;28;21050;-69
2023/10/07 01:46:30;;;;;;;15.50;3.80;;;;;;;-146.27;78.71;81452.22;5023139;28;20030;-68
2023/10/07 01:49:12;;;;;;;17.80;3.47;;;;;;;-146.27;78.54;81430.13;5024788;28;20048;-69
2023/10/07 01:51:44;;;;;;;17.65;3.80;;;;;;;-146.27;78.21;81387.94;5030456;28;20412;-67
2023/10/07 01:54:11;;;;;;;15.50;3.60;;;;;;;-146.27;78.96;81452.22;5029243;28;20033;-67
2023/10/07 01:56:38;;;;;;;11.30;3.15;;;;;;;-146.27;80.86;81584.75;5028267;28;20064;-67
2023/10/07 02:01:42;;;;;;;16.55;3.65;;;;;;;-146.27;79.52;81446.19;5016711;28;20044;-67
2023/10/07 02:04:26;;;;;;;20.35;3.72;;;;;;;-146.27;79.49;81464.25;5019761;28;20512;-67
2023/10/07 02:06:56;;;;;;;21.13;3.67;;;;;;;-146.27;79.53;81456.22;5024425;28;20041;-67
2023/10/07 02:09:26;;;;;;;13.07;3.25;;;;;;;-146.27;79.83;81472.28;5029858;28;20401;-67
2023/10/07 02:11:56;;;;;;;11.55;3.65;;;;;;;-146.27;80.37;81510.44;5026526;28;20021;-67
2023/10/07 02:14:25;;;;;;;16.38;3.88;;;;;;;-146.27;79.58;81446.19;5024111;28;20084;-67
2023/10/07 02:16:52;;;;;;;18.73;3.97;;;;;;;-146.27;79.58;81404.00;5029635;28;20474;-67
2023/10/07 02:19:27;;;;;;;14.90;3.10;;;;;;;-146.27;79.93;81444.19;5025482;28;20548;-67
2023/10/07 02:22:00;;;;;;;15.93;3.33;;;;;;;-146.27;79.91;81472.28;5014128;28;20030;-67
2023/10/07 02:24:29;;;;;;;14.63;3.70;;;;;;;-146.27;79.59;81418.06;5029114;28;20037;-67
2023/10/07 02:27:06;;;;;;;13.52;3.17;;;;;;;-146.27;80.29;81472.28;5021477;28;20304;-67
2023/10/07 02:29:33;;;;;;;13.27;3.00;;;;;;;-146.27;79.94;81456.22;5027573;28;20028;-67
2023/10/07 02:32:14;;;;;;;19.27;3.85;;;;;;;-146.27;80.54;81484.34;5029720;28;20033;-67
2023/10/07 02:34:53;;;;;;;25.92;3.70;;;;;;;-146.27;80.24;81482.34;5025520;28;20116;-67
2023/10/07 02:37:25;;;;;;;18.30;4.05;;;;;;;-146.27;80.66;81488.38;5024487;28;20537;-67
2023/10/07 02:40:03;;;;;;;15.07;3.70;;;;;;;-146.27;80.28;81472.28;5027384;28;20030;-67
2023/10/07 02:42:28;;;;;;;14.55;3.03;;;;;;;-146.27;80.07;81446.19;5024206;28;20060;-67
2023/10/07 02:45:19;;;;;;;13.77;3.83;;;;;;;-146.27;79.21;81375.91;5028805;28;20025;-67
2023/10/07 02:47:50;;;;;;;22.90;3.65;;;;;;;-146.27;80.12;81448.19;5020980;28;20060;-67
2023/10/07 02:50:16;;;;;;;11.52;3.38;;;;;;;-146.27;80.63;81484.34;5026814;28;20478;-67
2023/10/07 02:52:45;;;;;;;17.80;4.30;;;;;;;-146.27;80.45;81480.31;5018418;28;20029;-67
2023/10/07 02:57:46;;;;;;;16.00;3.42;;;;;;;-146.27;79.94;81385.94;5029450;28;20075;-67
2023/10/07 03:00:18;;;;;;;14.45;3.40;;;;;;;-146.27;79.99;81404.00;5025176;28;20060;-67
2023/10/07 03:03:09;;;;;;;12.13;3.83;;;;;;;-146.27;80.10;81375.91;5029425;28;20032;-67
2023/10/07 03:05:36;;;;;;;17.23;4.65;;;;;;;-146.27;79.42;81424.09;5022191;28;20032;-67
2023/10/07 03:08:06;;;;;;;16.23;4.63;;;;;;;-146.27;79.91;81404.00;5028943;28;20034;-67
2023/10/07 03:10:44;;;;;;;15.27;3.35;;;;;;;-146.27;80.01;81400.00;5025125;28;20029;-67
2023/10/07 03:13:11;;;;;;;12.02;3.13;;;;;;;-146.27;80.35;81448.19;5012545;28;20034;-67
2023/10/07 03:15:44;;;;;;;21.20;3.13;;;;;;;-146.27;80.76;81472.28;5019351;28;20132;-67
2023/10/07 03:18:21;;;;;;;15.48;2.97;;;;;;;-146.27;80.54;81430.13;5028123;28;20192;-67
2023/10/07 03:21:00;;;;;;;19.30;3.50;;;;;;;-146.27;80.99;81492.38;5027505;28;20115;-67
2023/10/07 03:23:26;;;;;;;10.10;3.20;;;;;;;-146.27;80.42;81424.09;5028558;28;20030;-67
2023/10/07 03:28:30;;;;;;;16.38;3.08;;;;;;;-146.27;81.62;81508.44;5010382;28;20034;-67
2023/10/07 03:30:56;;;;;;;15.02;3.13;;;;;;;-146.27;81.01;81464.25;5018381;28;20025;-67
2023/10/07 03:36:09;;;;;;;19.85;3.40;;;;;;;-146.27;81.26;81480.31;5023150;28;20040;-67
2023/10/07 03:38:35;;;;;;;15.43;3.30;;;;;;;-146.27;81.00;81456.22;5028720;28;20056;-67
2023/10/07 03:41:06;;;;;;;17.67;3.10;;;;;;;-146.27;82.03;81552.63;5018484;28;20021;-67
2023/10/07 03:43:34;;;;;;;14.90;3.17;;;;;;;-146.27;81.03;81456.22;5029405;28;20079;-68
2023/10/07 03:46:00;;;;;;;11.70;3.38;;;;;;;-146.27;81.31;81492.38;5026626;28;20095;-67
2023/10/07 03:48:34;;;;;;;29.40;3.42;;;;;;;-146.27;81.11;81404.00;5027115;28;20030;-67
2023/10/07 03:51:07;;;;;;;16.73;4.07;;;;;;;-146.27;80.34;81426.09;5028844;28;20076;-67
2023/10/07 03:53:42;;;;;;;12.98;3.80;;;;;;;-146.27;79.99;81426.09;5028377;28;20124;-67
2023/10/07 03:56:08;;;;;;;19.25;3.25;;;;;;;-146.27;81.03;81450.19;5028121;28;20481;-67
2023/10/07 03:58:36;;;;;;;14.30;3.80;;;;;;;-146.27;80.62;81454.22;5012100;28;20045;-67
2023/10/07 04:01:16;;;;;;;11.98;3.00;;;;;;;-146.27;80.29;81418.06;5021573;28;20112;-67
2023/10/07 04:03:51;;;;;;;17.15;3.33;;;;;;;-146.27;80.21;81416.06;5025829;28;20057;-67
2023/10/07 04:06:20;;;;;;;23.85;3.40;;;;;;;-146.27;80.39;81452.22;5025350;28;20025;-68
2023/10/07 04:08:52;;;;;;;14.15;3.47;;;;;;;-146.27;80.08;81420.06;5027773;28;20029;-68
2023/10/07 04:11:19;;;;;;;20.63;3.80;;;;;;;-146.27;80.18;81418.06;5017720;28;20033;-66
2023/10/07 04:13:46;;;;;;;11.65;2.80;;;;;;;-146.27;80.84;81496.41;5021204;28;20021;-67
2023/10/07 04:16:24;;;;;;;15.35;3.67;;;;;;;-146.27;79.83;81440.16;5027353;28;20547;-67
2023/10/07 04:18:51;;;;;;;18.25;3.67;;;;;;;-146.27;79.54;81414.06;5020037;28;20014;-65
2023/10/07 04:21:17;;;;;;;13.48;3.10;;;;;;;-146.27;80.06;81458.22;5022434;28;20029;-64
2023/10/07 04:23:45;;;;;;;21.35;3.13;;;;;;;-146.27;80.59;81476.31;5024131;28;20021;-66
2023/10/07 04:26:19;;;;;;;16.05;3.35;;;;;;;-146.27;79.79;81400.00;5038195;28;20107;-66
2023/10/07 04:28:48;;;;;;;16.25;3.55;;;;;;;-146.27;80.58;81502.41;5028257;28;20034;-66
2023/10/07 04:31:17;;;;;;;19.38;3.40;;;;;;;-146.27;80.81;81472.28;5027422;28;20112;-66
2023/10/07 04:33:53;;;;;;;15.60;3.50;;;;;;;-146.27;81.94;81552.63;5025342;28;20112;-66
2023/10/07 04:36:31;;;;;;;16.05;3.05;;;;;;;-146.27;80.09;81460.25;5025963;28;20021;-67
2023/10/07 04:38:57;;;;;;;10.75;2.90;;;;;;;-146.27;79.53;81402.00;5028891;28;20831;-66
2023/10/07 04:43:50;;;;;;;14.23;3.65;;;;;;;-146.27;80.11;81434.13;5018731;28;20042;-67
2023/10/07 04:46:23;;;;;;;15.60;3.58;;;;;;;-146.27;80.42;81498.41;5014961;28;20026;-64
2023/10/07 04:48:56;;;;;;;11.77;3.07;;;;;;;-146.27;80.45;81532.53;5023808;28;20037;-66
2023/10/07 04:51:46;;;;;;;14.60;3.40;;;;;;;-146.27;80.06;81462.25;5022815;28;20074;-67
2023/10/07 04:54:20;;;;;;;8.68;2.65;;;;;;;-146.27;80.92;81578.75;5024980;28;20618;-66
2023/10/07 04:56:48;;;;;;;13.35;2.75;;;;;;;-146.27;80.05;81486.34;5025158;28;20494;-66
2023/10/07 04:59:13;;;;;;;12.75;2.95;;;;;;;-146.27;79.88;81480.31;5030410;28;20374;-66
2023/10/07 05:01:41;;;;;;;10.00;3.05;;;;;;;-146.27;80.15;81524.50;5021700;28;20132;-66
2023/10/07 05:04:13;;;;;;;17.98;2.75;;;;;;;-146.27;80.38;81504.44;5021351;28;20440;-66
2023/10/07 05:06:42;;;;;;;7.20;2.95;;;;;;;-146.27;80.04;81456.22;5030405;28;20128;-66
2023/10/07 05:09:18;;;;;;;13.43;3.35;;;;;;;-146.27;81.09;81524.50;5023958;28;20053;-66
2023/10/07 05:11:45;;;;;;;9.27;2.58;;;;;;;-146.27;80.72;81504.44;5029051;28;20033;-66
2023/10/07 05:14:11;;;;;;;11.77;3.03;;;;;;;-146.27;80.78;81502.41;5030606;28;20390;-66
2023/10/07 05:16:37;;;;;;;13.85;2.78;;;;;;;-146.27;80.58;81464.25;5028254;28;20036;-66
2023/10/07 05:19:04;;;;;;;16.42;3.85;;;;;;;-146.27;80.90;81492.38;5030603;28;20037;-66
2023/10/07 05:21:31;;;;;;;15.02;3.05;;;;;;;-146.27;80.27;81462.25;5030972;28;20116;-66
2023/10/07 05:24:02;;;;;;;15.68;3.65;;;;;;;-146.27;80.89;81480.31;5027304;28;20033;-66
2023/10/07 05:26:30;;;;;;;10.63;3.03;;;;;;;-146.27;80.38;81468.28;5022611;28;20017;-66
2023/10/07 05:29:01;;;;;;;16.60;3.35;;;;;;;-146.27;80.62;81470.28;5031638;28;20109;-66
2023/10/07 05:31:29;;;;;;;15.27;3.90;;;;;;;-146.27;80.77;81508.44;5030675;28;20087;-66
2023/10/07 05:33:58;;;;;;;10.82;3.67;;;;;;;-146.27;82.02;81544.59;5025478;28;20044;-66
2023/10/07 05:36:29;;;;;;;12.25;2.83;;;;;;;-146.27;81.49;81532.53;5022841;28;20052;-66
2023/10/07 05:38:55;;;;;;;14.95;3.25;;;;;;;-146.27;80.60;81492.38;5020895;28;20030;-66
2023/10/07 05:41:25;;;;;;;23.92;4.03;;;;;;;-146.27;81.27;81504.44;5018936;28;20032;-66
2023/10/07 05:43:51;;;;;;;14.32;3.22;;;;;;;-146.27;81.17;81496.41;5027491;28;20537;-66
2023/10/07 05:46:20;;;;;;;13.43;2.63;;;;;;;-146.27;81.61;81530.53;5019296;28;20084;-66
2023/10/07 05:48:46;;;;;;;15.95;3.75;;;;;;;-146.27;81.16;81504.44;5022051;28;20045;-67
2023/10/07 05:51:12;;;;;;;13.93;3.55;;;;;;;-146.27;81.81;81544.59;5031213;28;20026;-66
2023/10/07 05:53:39;;;;;;;18.23;3.70;;;;;;;-146.27;81.35;81482.34;5016451;28;20026;-66
2023/10/07 05:56:06;;;;;;;12.55;2.97;;;;;;;-146.27;81.34;81502.41;5023515;28;20083;-66
2023/10/07 05:58:36;;;;;;;11.50;2.88;;;;;;;-146.27;81.75;81524.50;5029130;28;20039;-66
2023/10/07 06:01:05;;;;;;;15.20;2.92;;;;;;;-146.27;81.52;81534.56;5022482;28;20478;-66
2023/10/07 06:03:32;;;;;;;16.45;3.63;;;;;;;-146.27;81.64;81486.34;5027974;28;20496;-66
2023/10/07 06:05:59;;;;;;;15.68;3.67;;;;;;;-146.27;82.90;81588.78;5029609;28;20027;-66
2023/10/07 06:08:28;;;;;;;13.52;3.13;;;;;;;-146.27;82.58;81572.72;5020981;28;20419;-66
2023/10/07 06:10:57;;;;;;;9.55;3.03;;;;;;;-146.27;82.06;81536.56;5018933;28;20042;-66
2023/10/07 06:13:23;;;;;;;15.30;3.55;;;;;;;-146.27;82.38;81546.59;5024364;28;20044;-65
2023/10/07 06:15:58;;;;;;;10.85;3.03;;;;;;;-146.27;81.68;81476.31;5024966;28;20053;-66
2023/10/07 06:18:27;;;;;;;15.70;4.00;;;;;;;-146.27;82.42;81536.56;5011639;28;20478;-66
2023/10/07 06:20:53;;;;;;;17.35;3.50;;;;;;;-146.27;83.63;81657.06;5023026;28;20039;-65
2023/10/07 06:23:19;;;;;;;13.88;3.92;;;;;;;-146.27;82.65;81560.66;5028291;28;20125;-65
2023/10/07 06:25:49;;;;;;;13.70;3.22;;;;;;;-146.27;83.30;81616.91;5022656;28;20017;-65
2023/10/07 06:31:10;;;;;;;20.13;4.25;;;;;;;-146.27;82.38;81552.63;5029969;28;20053;-67
2023/10/07 06:33:44;;;;;;;14.15;4.05;;;;;;;-146.27;83.45;81653.06;5029017;28;20021;-67
2023/10/07 06:36:12;;;;;;;22.95;3.90;;;;;;;-146.27;83.68;81657.06;5012155;28;20101;-68
2023/10/07 06:38:45;;;;;;;12.75;3.33;;;;;;;-146.27;82.71;81570.69;5024532;28;20025;-68
2023/10/07 06:41:11;;;;;;;16.20;4.13;;;;;;;-146.27;82.29;81568.69;5027133;28;20035;-68
2023/10/07 06:43:43;;;;;;;13.77;3.85;;;;;;;-146.27;83.40;81620.91;5025921;28;20479;-69
2023/10/07 06:46:12;;;;;;;18.42;4.07;;;;;;;-146.27;82.68;81568.69;5011189;28;20030;-68
2023/10/07 06:48:38;;;;;;;22.58;4.10;;;;;;;-146.27;83.29;81600.84;5017662;28;20048;-68
2023/10/07 06:51:06;;;;;;;18.02;3.50;;;;;;;-146.27;83.12;81659.06;5021734;28;20074;-69
2023/10/07 06:53:31;;;;;;;12.25;3.60;;;;;;;-146.27;82.93;81596.81;5030203;28;20041;-68
2023/10/07 06:56:01;;;;;;;15.70;3.63;;;;;;;-146.27;83.16;81594.81;5011154;28;20470;-68
2023/10/07 06:58:27;;;;;;;16.17;3.92;;;;;;;-146.27;83.93;81626.94;5014933;28;20052;-69
2023/10/07 07:01:51;;;;;;;15.00;4.80;;;;;;;-146.27;83.11;81584.75;5023619;28;20041;-69
2023/10/07 07:03:38;;;;;;;15.10;3.60;;;;;;;-146.27;83.91;81653.06;5009937;28;20069;-66
2023/10/07 07:06:07;;;;;;;22.65;5.75;;;;;;;-146.27;84.04;81618.91;5028858;28;20067;-69
2023/10/07 07:08:34;;;;;;;17.63;4.60;;;;;;;-146.27;82.69;81528.53;5024641;28;20036;-70
2023/10/07 07:11:09;;;;;;;22.98;3.92;;;;;;;-146.27;81.92;81452.22;5031167;28;20037;-69
2023/10/07 07:13:35;;;;;;;14.30;3.42;;;;;;;-146.27;81.96;81484.34;5022828;28;20029;-70
2023/10/07 07:16:06;;;;;;;18.10;4.18;;;;;;;-146.27;82.40;81512.47;5021195;28;20497;-69
2023/10/07 07:18:32;;;;;;;15.25;4.40;;;;;;;-146.27;82.51;81512.47;5017433;28;20018;-69
2023/10/07 07:21:13;;;;;;;15.00;3.50;;;;;;;-146.27;82.21;81456.22;5024317;28;20037;-69
2023/10/07 07:23:49;;;;;;;21.00;4.50;;;;;;;-146.27;81.71;81458.22;5021792;28;20032;-67
2023/10/07 07:26:18;;;;;;;17.27;3.47;;;;;;;-146.27;81.65;81420.06;5029454;28;20013;-70
2023/10/07 07:28:44;;;;;;;19.85;5.30;;;;;;;-146.27;82.08;81528.53;5041162;28;20468;-69
2023/10/07 07:31:11;;;;;;;16.70;3.88;;;;;;;-146.27;82.22;81522.50;5030696;28;20037;-69
2023/10/07 07:33:38;;;;;;;18.83;4.15;;;;;;;-146.27;81.92;81498.41;5015814;28;20025;-68
2023/10/07 07:36:37;;;;;;;12.10;3.13;;;;;;;-146.27;81.41;81458.22;5019020;28;20113;-68
2023/10/07 07:39:10;;;;;;;33.78;4.28;;;;;;;-146.27;82.62;81510.44;5024471;28;20109;-68
2023/10/07 07:41:55;;;;;;;14.97;3.63;;;;;;;-146.27;81.63;81478.31;5021646;28;20040;-67
2023/10/07 07:44:32;;;;;;;15.27;4.07;;;;;;;-146.27;81.88;81510.44;5029900;28;20033;-68
2023/10/07 07:46:58;;;;;;;14.65;4.20;;;;;;;-146.27;81.48;81424.09;5027433;28;20077;-67
2023/10/07 07:49:27;;;;;;;17.38;3.95;;;;;;;-146.27;81.77;81486.34;5028088;28;20040;-67
2023/10/07 07:51:53;;;;;;;13.38;2.90;;;;;;;-146.27;82.06;81604.84;5010304;28;20037;-68
2023/10/07 07:54:18;;;;;;;11.77;3.05;;;;;;;-146.27;80.86;81454.22;5014852;28;20033;-68
2023/10/07 07:56:45;;;;;;;20.35;3.67;;;;;;;-146.27;80.63;81484.34;5020772;28;20699;-69
2023/10/07 07:59:14;;;;;;;18.42;3.35;;;;;;;-146.27;80.86;81510.44;5032538;28;20518;-69
2023/10/07 08:01:53;;;;;;;23.00;4.40;;;;;;;-146.27;80.00;81432.13;5027105;28;20048;-69
2023/10/07 08:04:34;;;;;;;19.33;3.33;;;;;;;-146.27;79.44;81414.06;5014841;28;20255;-69
2023/10/07 08:07:05;;;;;;;17.13;4.00;;;;;;;-146.27;78.34;81365.84;5021701;28;20033;-69
2023/10/07 08:09:36;;;;;;;14.85;3.10;;;;;;;-146.27;78.69;81359.81;5027213;28;20111;-69
2023/10/07 08:12:01;;;;;;;14.57;3.67;;;;;;;-146.27;77.72;81227.28;5026289;28;20041;-69
2023/10/07 08:14:27;;;;;;;15.75;3.47;;;;;;;-146.27;77.40;81275.47;5020724;28;20045;-69
2023/10/07 08:16:52;;;;;;;15.70;3.45;;;;;;;-146.27;77.66;81275.47;5027918;28;20033;-69
2023/10/07 08:19:23;;;;;;;17.80;3.53;;;;;;;-146.27;78.53;81359.81;5028881;28;20104;-69
2023/10/07 08:21:53;;;;;;;18.52;3.58;;;;;;;-146.27;77.71;81239.34;5022382;28;20041;-69
2023/10/07 08:24:23;;;;;;;17.90;3.67;;;;;;;-146.27;77.44;81247.38;5017373;28;20034;-69
2023/10/07 08:26:49;;;;;;;16.83;3.63;;;;;;;-146.27;76.93;81175.06;5014227;28;20030;-69
2023/10/07 08:29:31;;;;;;;17.48;3.65;;;;;;;-146.27;76.78;81116.84;5012812;28;20472;-69
2023/10/07 08:31:59;;;;;;;12.02;3.38;;;;;;;-146.27;77.74;81269.47;5031495;28;20108;-69
2023/10/07 08:34:31;;;;;;;16.73;4.07;;;;;;;-146.27;77.21;81213.22;5019622;28;20549;-68
2023/10/07 08:37:01;;;;;;;26.90;4.60;;;;;;;-146.27;76.44;81124.88;5026804;28;20025;-69
2023/10/07 08:39:28;;;;;;;21.67;4.47;;;;;;;-146.27;76.69;81237.31;5025229;28;20485;-67
2023/10/07 08:41:58;;;;;;;15.57;3.38;;;;;;;-146.27;76.82;81283.50;5016999;28;20366;-68
2023/10/07 08:44:31;;;;;;;15.32;4.28;;;;;;;-146.27;76.08;81243.34;5031265;28;20037;-68
2023/10/07 08:47:03;;;;;;;;;;;;;;;-146.27;75.29;81203.19;5027364;28;20057;-67
2023/10/07 08:49:32;;;;;;;13.75;3.67;;;;;;;-146.27;75.59;81243.34;5032086;28;19916;-69
2023/10/07 08:51:59;;;;;;;15.98;3.67;;;;;;;-146.27;74.27;81034.50;5032414;28;20029;-68
2023/10/07 08:54:31;;;;;;;19.15;4.10;;;;;;;-146.27;73.41;81018.44;5020555;28;20030;-69
2023/10/07 08:56:58;;;;;;;20.80;4.03;;;;;;;-146.27;72.24;81078.69;5012587;28;20057;-69
2023/10/07 08:59:30;;;;;;;17.17;4.20;;;;;;;-146.27;72.96;81022.44;5024442;28;20064;-68
2023/10/07 09:02:00;;;;;;;17.25;3.90;;;;;;;-146.27;72.44;80895.94;5029469;28;20041;-68
2023/10/07 09:04:33;;;;;;;18.02;4.00;;;;;;;-146.27;70.82;80887.91;5022842;28;20148;-69
2023/10/07 09:07:11;;;;;;;13.30;3.15;;;;;;;-146.27;70.97;80946.13;5024014;28;20436;-66
2023/10/07 09:09:38;;;;;;;19.67;3.88;;;;;;;-146.27;70.22;80891.94;5031794;28;20025;-67
2023/10/07 09:12:14;;;;;;;10.50;2.95;;;;;;;-146.27;70.05;80982.28;5028276;28;20120;-67
2023/10/07 09:14:47;;;;;;;16.27;3.88;;;;;;;-146.27;70.11;80918.03;5032402;28;20128;-67
2023/10/07 09:17:13;;;;;;;21.77;4.07;;;;;;;-146.27;70.33;81034.50;5029774;28;20119;-67
2023/10/07 09:19:43;;;;;;;15.77;3.63;;;;;;;-146.27;69.45;80865.81;5032446;28;20101;-68
2023/10/07 09:22:15;;;;;;;15.70;3.90;;;;;;;-146.27;69.68;80807.59;5030724;28;20090;-67
2023/10/07 09:24:44;;;;;;;13.68;3.80;;;;;;;-146.27;70.34;81058.59;5027390;28;20425;-68
2023/10/07 09:27:13;;;;;;;16.52;4.10;;;;;;;-146.27;69.55;80926.06;5027338;28;20535;-66
2023/10/07 09:29:39;;;;;;;16.38;3.58;;;;;;;-146.27;68.42;80789.50;5023600;28;20026;-67
2023/10/07 09:32:05;;;;;;;17.63;3.58;;;;;;;-146.27;68.55;80797.53;5027858;28;20043;-65
2023/10/07 09:34:44;;;;;;;19.10;3.88;;;;;;;-146.27;68.99;80777.47;5029603;28;20116;-66
2023/10/07 09:37:18;;;;;;;14.27;3.38;;;;;;;-146.27;68.80;80829.69;5027319;28;20033;-67
2023/10/07 09:39:44;;;;;;;14.75;3.60;;;;;;;-146.27;69.05;80819.63;5020175;28;20037;-68
2023/10/07 09:42:26;;;;;;;13.00;3.92;;;;;;;-146.27;68.30;80805.56;5035560;28;20370;-67
2023/10/07 09:47:41;;;;;;;20.48;4.20;;;;;;;-146.27;67.27;80713.22;5037248;28;20076;-68
2023/10/07 09:50:25;;;;;;;13.68;4.75;;;;;;;-146.27;66.78;80548.56;5030684;28;20086;-68
2023/10/07 09:53:30;;;;;;;14.85;3.42;;;;;;;-146.27;65.45;80644.94;5020208;28;20091;-67
2023/10/07 09:56:23;;;;;;;16.42;3.03;;;;;;;-146.27;65.29;80681.09;5034126;28;20120;-68
2023/10/07 09:59:15;;;;;;;14.95;3.13;;;;;;;-146.27;63.87;80757.38;5035440;28;20488;-67
2023/10/07 10:02:25;;;;;;;11.55;3.17;;;;;;;-146.27;63.43;80729.28;5027082;28;20033;-68
2023/10/07 10:05:31;;;;;;;11.68;3.08;;;;;;;-146.27;63.13;80644.94;5022614;28;20406;-68
2023/10/07 10:08:35;;;;;;;9.57;3.35;;;;;;;-146.27;63.40;80819.63;5041546;28;20102;-68
2023/10/07 10:11:08;;;;;;;10.80;3.95;;;;;;;-146.27;63.43;80765.41;5025039;28;20389;-68
2023/10/07 10:16:12;;;;;;;11.25;2.92;;;;;;;-146.27;62.65;80612.81;5028067;28;20263;-68
2023/10/07 10:18:45;;;;;;;15.93;4.15;;;;;;;-146.27;62.07;80622.84;5028788;28;20032;-68
2023/10/07 10:21:12;;;;;;;11.37;3.23;;;;;;;-146.27;61.51;80558.59;5013944;28;20037;-68
2023/10/07 10:23:42;;;;;;;11.18;3.53;;;;;;;-146.27;60.58;80420.06;5034431;28;20402;-69
2023/10/07 10:26:24;;;;;;;14.95;3.50;;;;;;;-146.27;60.46;80480.28;5018127;28;20021;-68
2023/10/07 10:29:00;;;;;;;10.80;3.53;;;;;;;-146.27;60.29;80371.88;5044720;28;20024;-68
2023/10/07 10:31:34;;;;;;;17.40;3.60;;;;;;;-146.27;59.94;80343.75;5034088;28;20029;-68
2023/10/07 10:34:08;;;;;;;7.82;2.85;;;;;;;-146.27;60.18;80468.25;5037311;28;20029;-67
2023/10/07 10:36:49;;;;;;;10.90;3.08;;;;;;;-146.27;59.80;80271.47;5023564;28;20040;-68
2023/10/07 10:39:25;;;;;;;11.75;3.38;;;;;;;-146.27;60.23;80410.03;5042522;28;20037;-68
2023/10/07 10:41:51;;;;;;;8.90;2.90;;;;;;;-146.27;60.33;80323.69;5028254;28;20446;-67
2023/10/07 10:44:17;;;;;;;10.65;3.33;;;;;;;-146.27;59.24;80416.03;5031820;28;20048;-68
2023/10/07 10:46:48;;;;;;;11.75;3.45;;;;;;;-146.27;59.73;80325.69;5037477;28;20033;-69
2023/10/07 10:49:17;;;;;;;14.43;3.70;;;;;;;-146.27;59.83;80404.00;5022231;28;20092;-68
2023/10/07 10:51:45;;;;;;;13.90;3.65;;;;;;;-146.27;60.54;80424.06;5041315;28;20033;-69
2023/10/07 10:54:22;;;;;;;12.23;3.22;;;;;;;-146.27;60.27;80359.81;5032916;28;20485;-70
2023/10/07 10:56:55;;;;;;;18.75;3.78;;;;;;;-146.27;59.90;80325.69;5029900;28;20465;-70
2023/10/07 10:59:22;;;;;;;13.35;3.42;;;;;;;-146.27;58.52;80321.69;5032823;28;20026;-70
2023/10/07 11:01:50;;;;;;;14.27;3.08;;;;;;;-146.27;57.34;80070.72;5047451;28;20485;-71
2023/10/07 11:04:21;;;;;;;8.25;3.20;;;;;;;-146.27;57.75;80112.88;5045407;28;20416;-70
2023/10/07 11:06:51;;;;;;;12.02;3.28;;;;;;;-146.27;58.67;80243.38;5025941;28;20393;-68
2023/10/07 11:09:25;;;;;;;12.90;3.58;;;;;;;-146.27;58.38;80078.75;5034324;28;20116;-68
2023/10/07 11:11:52;;;;;;;14.07;3.65;;;;;;;-146.27;59.53;80379.91;5032811;28;20044;-68
2023/10/07 11:14:20;;;;;;;12.30;3.10;;;;;;;-146.27;57.85;80143.00;5034378;28;20547;-69
2023/10/07 11:16:47;;;;;;;9.52;2.78;;;;;;;-146.27;57.84;80177.13;5020788;28;20436;-69
2023/10/07 11:19:14;;;;;;;11.63;3.10;;;;;;;-146.27;56.69;80118.91;5020493;28;20033;-68
2023/10/07 11:21:41;;;;;;;14.15;3.33;;;;;;;-146.27;56.34;79976.34;5015747;28;20091;-68
2023/10/07 11:24:07;;;;;;;11.30;2.95;;;;;;;-146.27;57.21;80096.81;5019219;28;20086;-69
2023/10/07 11:26:33;;;;;;;11.35;3.25;;;;;;;-146.27;58.27;80229.31;5034015;28;20569;-68
2023/10/07 11:29:10;;;;;;;10.68;3.22;;;;;;;-146.27;57.55;80118.91;5026007;28;20108;-68
2023/10/07 11:31:37;;;;;;;11.45;3.30;;;;;;;-146.27;57.08;80074.72;5025719;28;20442;-68
2023/10/07 11:34:04;;;;;;;13.52;3.40;;;;;;;-146.27;57.00;79984.38;5027982;28;20449;-69
2023/10/07 11:36:30;;;;;;;16.23;3.88;;;;;;;-146.27;57.60;79821.78;5022519;28;20041;-68
2023/10/07 11:38:56;;;;;;;7.65;3.22;;;;;;;-146.27;56.73;79867.94;5030395;28;20143;-69
2023/10/07 11:41:21;;;;;;;13.38;3.65;;;;;;;-146.27;54.78;79705.34;5028267;28;20030;-69
2023/10/07 11:43:47;;;;;;;13.57;3.58;;;;;;;-146.27;56.17;80022.53;5027453;28;20025;-68
2023/10/07 11:46:13;;;;;;;9.95;3.60;;;;;;;-146.27;56.94;80086.78;5031211;28;20064;-68
2023/10/07 11:48:41;;;;;;;12.75;3.65;;;;;;;-146.27;58.19;80130.94;5022186;28;20108;-70
2023/10/07 11:51:07;;;;;;;11.88;3.58;;;;;;;-146.27;58.59;80191.16;5024540;28;20037;-69
2023/10/07 11:53:32;;;;;;;11.90;3.13;;;;;;;-146.27;60.16;80367.84;5029398;28;20096;-67
2023/10/07 11:55:58;;;;;;;13.07;3.58;;;;;;;-146.27;60.65;80311.63;5024359;28;20029;-67